createdAt,value
2023-06-14T00:02:11.331Z,98187.89
2023-06-14T00:04:43.284Z,98184.30
2023-06-14T00:07:15.320Z,98180.33
2023-06-14T00:09:44.865Z,98182.11
2023-06-14T00:12:14.812Z,98180.41
2023-06-14T00:14:44.235Z,98178.94
2023-06-14T00:17:13.588Z,98182.48
2023-06-14T00:19:43.297Z,98186.77
2023-06-14T00:22:13.857Z,98190.86
2023-06-14T00:24:43.934Z,98190.36
2023-06-14T00:27:13.115Z,98189.62
2023-06-14T00:29:42.498Z,98190.13
2023-06-14T00:32:12.325Z,98190.40
2023-06-14T00:34:42.024Z,98193.28
2023-06-14T00:37:11.540Z,98192.86
2023-06-14T00:39:40.377Z,98191.40
2023-06-14T00:42:09.357Z,98190.06
2023-06-14T00:44:38.467Z,98188.77
2023-06-14T00:47:07.976Z,98187.73
2023-06-14T00:49:37.094Z,98186.77
2023-06-14T00:52:08.076Z,98189.73
2023-06-14T00:54:37.336Z,98186.19
2023-06-14T00:57:07.501Z,98188.77
2023-06-14T00:59:44.452Z,98191.35
2023-06-14T01:02:16.519Z,98190.41
2023-06-14T01:04:49.650Z,98186.69
2023-06-14T01:07:47.015Z,98175.63
2023-06-14T01:10:46.446Z,98180.70
2023-06-14T01:13:36.273Z,98181.78
2023-06-14T01:16:07.656Z,98176.70
2023-06-14T01:18:38.058Z,98178.86
2023-06-14T01:21:07.570Z,98176.90
2023-06-14T01:23:37.092Z,98174.17
2023-06-14T01:26:07.533Z,98178.55
2023-06-14T01:28:38.088Z,98179.34
2023-06-14T01:31:09.494Z,98177.25
2023-06-14T01:33:39.224Z,98173.52
2023-06-14T01:36:09.886Z,98174.08
2023-06-14T01:38:40.102Z,98170.16
2023-06-14T01:41:10.078Z,98164.91
2023-06-14T01:43:42.031Z,98165.82
2023-06-14T01:46:12.266Z,98163.35
2023-06-14T01:48:41.984Z,98158.27
2023-06-14T01:51:11.521Z,98154.96
2023-06-14T01:53:40.766Z,98154.83
2023-06-14T01:56:10.201Z,98152.04
2023-06-14T01:58:41.226Z,98144.06
2023-06-14T02:01:10.347Z,98149.43
2023-06-14T02:03:40.509Z,98144.51
2023-06-14T02:06:09.713Z,98138.52
2023-06-14T02:08:39.289Z,98129.80
2023-06-14T02:11:08.368Z,98126.74
2023-06-14T02:13:37.971Z,98131.95
2023-06-14T02:16:07.183Z,98130.02
2023-06-14T02:18:36.359Z,98131.63
2023-06-14T02:21:05.790Z,98128.37
2023-06-14T02:23:35.725Z,98117.52
2023-06-14T02:26:05.387Z,98116.09
2023-06-14T02:28:36.238Z,98115.63
2023-06-14T02:31:05.717Z,98106.31
2023-06-14T02:33:35.254Z,98108.12
2023-06-14T02:36:04.934Z,98104.48
2023-06-14T02:38:34.890Z,98096.23
2023-06-14T02:41:04.168Z,98096.45
2023-06-14T02:43:33.473Z,98096.34
2023-06-14T02:46:02.735Z,98095.42
2023-06-14T02:48:31.835Z,98088.44
2023-06-14T02:51:01.118Z,98086.79
2023-06-14T02:53:30.146Z,98092.44
2023-06-14T02:55:59.743Z,98091.45
2023-06-14T02:58:29.033Z,98092.94
2023-06-14T03:00:58.310Z,98098.31
2023-06-14T03:03:28.133Z,98102.77
2023-06-14T03:05:57.939Z,98102.45
2023-06-14T03:08:29.109Z,98101.89
2023-06-14T03:10:58.997Z,98101.95
2023-06-14T03:13:28.781Z,98099.60
2023-06-14T03:15:58.091Z,98104.41
2023-06-14T03:18:28.592Z,98103.11
2023-06-14T03:20:59.667Z,98105.20
2023-06-14T03:23:29.198Z,98109.02
2023-06-14T03:25:58.836Z,98107.68
2023-06-14T03:28:29.185Z,98109.98
2023-06-14T03:30:59.209Z,98108.14
2023-06-14T03:33:29.043Z,98113.21
2023-06-14T03:35:59.234Z,98114.10
2023-06-14T03:38:28.488Z,98114.86
2023-06-14T03:40:58.048Z,98119.14
2023-06-14T03:43:27.503Z,98119.96
2023-06-14T03:45:56.524Z,98121.30
2023-06-14T03:48:26.205Z,98123.88
2023-06-14T03:50:59.336Z,98129.45
2023-06-14T03:53:31.354Z,98133.63
2023-06-14T03:56:01.552Z,98134.21
2023-06-14T03:58:31.138Z,98140.36
2023-06-14T04:01:00.657Z,98142.24
2023-06-14T04:03:31.357Z,98138.50
2023-06-14T04:06:01.577Z,98138.81
2023-06-14T04:08:31.464Z,98137.90
2023-06-14T04:11:01.171Z,98137.64
2023-06-14T04:13:30.850Z,98138.70
2023-06-14T04:16:00.119Z,98133.65
2023-06-14T04:18:30.015Z,98137.86
2023-06-14T04:20:59.242Z,98137.14
2023-06-14T04:23:29.864Z,98142.55
2023-06-14T04:26:04.123Z,98143.14
2023-06-14T04:28:33.606Z,98143.64
2023-06-14T04:31:04.099Z,98146.90
2023-06-14T04:33:33.689Z,98144.86
2023-06-14T04:36:03.512Z,98144.89
2023-06-14T04:38:36.588Z,98147.59
2023-06-14T04:41:06.649Z,98142.11
2023-06-14T04:43:39.758Z,98144.22
2023-06-14T04:46:12.509Z,98144.84
2023-06-14T04:48:44.212Z,98148.88
2023-06-14T04:51:14.924Z,98154.94
2023-06-14T04:53:45.696Z,98155.78
2023-06-14T04:56:16.830Z,98153.61
2023-06-14T04:58:48.575Z,98154.89
2023-06-14T05:01:18.669Z,98160.27
2023-06-14T05:03:50.492Z,98159.00
2023-06-14T05:06:20.324Z,98157.34
2023-06-14T05:08:50.138Z,98155.91
2023-06-14T05:11:20.195Z,98158.78
2023-06-14T05:13:49.763Z,98154.45
2023-06-14T05:16:21.514Z,98150.35
2023-06-14T05:18:53.342Z,98144.27
2023-06-14T05:21:24.193Z,98146.84
2023-06-14T05:23:54.119Z,98145.17
2023-06-14T05:26:30.527Z,98151.41
2023-06-14T05:29:02.030Z,98152.23
2023-06-14T05:31:32.098Z,98150.81
2023-06-14T05:34:01.956Z,98149.36
2023-06-14T05:36:32.020Z,98144.87
2023-06-14T05:39:05.168Z,98141.41
2023-06-14T05:41:34.989Z,98136.54
2023-06-14T05:44:04.809Z,98137.81
2023-06-14T05:46:34.637Z,98140.09
2023-06-14T05:49:03.788Z,98137.95
2023-06-14T05:51:33.827Z,98140.75
2023-06-14T05:54:04.656Z,98134.56
2023-06-14T05:56:34.736Z,98132.16
2023-06-14T05:59:04.989Z,98126.95
2023-06-14T06:01:39.130Z,98129.32
2023-06-14T06:04:09.135Z,98130.83
2023-06-14T06:06:38.507Z,98131.63
2023-06-14T06:09:08.600Z,98130.47
2023-06-14T06:11:48.883Z,98135.06
2023-06-14T06:14:22.623Z,98138.27
2023-06-14T06:16:54.374Z,98140.75
2023-06-14T06:19:23.774Z,98147.52
2023-06-14T06:21:53.560Z,98153.77
2023-06-14T06:24:25.616Z,98155.84
2023-06-14T06:26:54.760Z,98155.20
2023-06-14T06:29:24.227Z,98162.98
2023-06-14T06:31:53.645Z,98172.80
2023-06-14T06:34:23.345Z,98173.38
2023-06-14T06:36:52.698Z,98180.48
2023-06-14T06:39:22.000Z,98183.19
2023-06-14T06:41:51.223Z,98182.75
2023-06-14T06:44:20.655Z,98182.96
2023-06-14T06:46:50.183Z,98181.59
2023-06-14T06:49:20.375Z,98183.19
2023-06-14T06:52:09.377Z,98183.20
2023-06-14T06:54:39.379Z,98184.86
2023-06-14T06:57:09.795Z,98184.75
2023-06-14T06:59:39.670Z,98183.15
2023-06-14T07:02:09.526Z,98185.52
2023-06-14T07:04:39.408Z,98191.73
2023-06-14T07:07:11.311Z,98196.19
2023-06-14T07:09:43.741Z,98196.15
2023-06-14T07:12:14.357Z,98194.53
2023-06-14T07:14:45.466Z,98199.20
2023-06-14T07:17:15.431Z,98195.71
2023-06-14T07:19:44.974Z,98198.79
2023-06-14T07:22:15.177Z,98198.41
2023-06-14T07:24:44.553Z,98196.19
2023-06-14T07:27:15.744Z,98188.43
2023-06-14T07:29:46.526Z,98184.59
2023-06-14T07:32:16.941Z,98183.57
2023-06-14T07:34:46.664Z,98182.41
2023-06-14T07:37:16.480Z,98177.98
2023-06-14T07:39:46.175Z,98173.58
2023-06-14T07:42:16.034Z,98175.15
2023-06-14T07:44:45.624Z,98175.45
2023-06-14T07:47:15.508Z,98174.27
2023-06-14T07:49:46.324Z,98170.77
2023-06-14T07:52:16.981Z,98176.90
2023-06-14T07:54:46.939Z,98170.59
2023-06-14T07:57:17.027Z,98164.36
2023-06-14T07:59:47.719Z,98167.24
2023-06-14T08:02:18.200Z,98168.91
2023-06-14T08:04:50.223Z,98173.40
2023-06-14T08:07:21.215Z,98170.97
2023-06-14T08:09:51.361Z,98173.38
2023-06-14T08:12:20.946Z,98165.41
2023-06-14T08:14:58.132Z,98163.96
2023-06-14T08:17:32.773Z,98167.58
2023-06-14T08:20:02.519Z,98169.60
2023-06-14T08:22:35.492Z,98168.55
2023-06-14T08:25:05.548Z,98163.33
2023-06-14T08:27:35.992Z,98161.27
2023-06-14T08:30:06.310Z,98163.54
2023-06-14T08:32:36.457Z,98157.95
2023-06-14T08:35:07.667Z,98165.69
2023-06-14T08:37:43.359Z,98161.55
2023-06-14T08:40:23.306Z,98155.14
2023-06-14T08:42:57.271Z,98157.98
2023-06-14T08:45:29.415Z,98160.66
2023-06-14T08:48:01.572Z,98160.55
2023-06-14T08:50:33.712Z,98159.90
2023-06-14T08:53:05.605Z,98160.89
2023-06-14T08:55:37.765Z,98159.02
2023-06-14T08:58:11.150Z,98157.27
2023-06-14T09:00:43.545Z,98154.64
2023-06-14T09:03:15.379Z,98147.23
2023-06-14T09:05:46.688Z,98148.48
2023-06-14T09:08:21.208Z,98150.61
2023-06-14T09:10:51.424Z,98147.24
2023-06-14T09:13:21.968Z,98147.94
2023-06-14T09:15:52.368Z,98150.09
2023-06-14T09:18:22.751Z,98153.75
2023-06-14T09:20:52.516Z,98153.45
2023-06-14T09:23:25.439Z,98154.52
2023-06-14T09:25:56.434Z,98153.18
2023-06-14T09:28:30.127Z,98145.55
2023-06-14T09:30:59.897Z,98143.40
2023-06-14T09:33:29.399Z,98138.52
2023-06-14T09:35:59.307Z,98134.19
2023-06-14T09:38:29.025Z,98133.29
2023-06-14T09:41:00.867Z,98133.92
2023-06-14T09:43:31.786Z,98127.15
2023-06-14T09:46:03.610Z,98122.64
2023-06-14T09:48:33.748Z,98117.71
2023-06-14T09:51:04.735Z,98120.29
2023-06-14T09:53:38.713Z,98115.15
2023-06-14T09:56:09.730Z,98117.75
2023-06-14T09:58:42.420Z,98125.20
2023-06-14T10:01:15.773Z,98123.20
2023-06-14T10:04:06.570Z,98122.17
2023-06-14T10:06:47.889Z,98123.30
2023-06-14T10:09:19.261Z,98128.08
2023-06-14T10:11:51.011Z,98128.11
2023-06-14T10:14:21.620Z,98131.77
2023-06-14T10:17:10.654Z,98142.52
2023-06-14T10:19:50.256Z,98142.50
2023-06-14T10:22:26.763Z,98147.05
2023-06-14T10:24:57.801Z,98158.09
2023-06-14T10:27:27.876Z,98142.58
2023-06-14T10:30:04.030Z,98140.81
2023-06-14T10:32:34.384Z,98145.36
2023-06-14T10:35:11.717Z,98160.91
2023-06-14T10:37:47.539Z,98166.16
2023-06-14T10:40:35.203Z,98173.37
2023-06-14T10:43:26.496Z,98184.20
2023-06-14T10:46:19.209Z,98190.82
2023-06-14T10:49:00.652Z,98193.67
2023-06-14T10:51:46.808Z,98194.83
2023-06-14T10:54:18.799Z,98207.55
2023-06-14T10:56:51.150Z,98214.95
2023-06-14T10:59:25.835Z,98222.41
2023-06-14T11:02:05.546Z,98216.97
2023-06-14T11:05:00.428Z,98209.90
2023-06-14T11:08:09.458Z,98197.88
2023-06-14T11:10:44.545Z,98193.20
2023-06-14T11:13:15.437Z,98195.90
2023-06-14T11:15:50.267Z,98195.15
2023-06-14T11:18:29.600Z,98196.14
2023-06-14T11:21:02.467Z,98195.86
2023-06-14T11:23:35.337Z,98195.73
2023-06-14T11:26:08.472Z,98189.16
2023-06-14T11:28:43.490Z,98184.02
2023-06-14T11:31:14.054Z,98185.24
2023-06-14T11:33:44.894Z,98189.42
2023-06-14T11:36:18.143Z,98189.71
2023-06-14T11:38:48.178Z,98185.05
2023-06-14T11:41:22.357Z,98184.93
2023-06-14T11:43:56.376Z,98177.86
2023-06-14T11:46:29.853Z,98181.38
2023-06-14T11:49:00.131Z,98182.41
2023-06-14T11:51:37.623Z,98182.96
2023-06-14T11:54:11.355Z,98176.31
2023-06-14T11:56:46.516Z,98180.98
2023-06-14T11:59:20.436Z,98173.17
2023-06-14T12:01:54.208Z,98168.21
2023-06-14T12:04:29.344Z,98164.77
2023-06-14T12:06:59.844Z,98157.16
2023-06-14T12:09:32.263Z,98155.52
2023-06-14T12:12:05.641Z,98151.66
2023-06-14T12:14:39.117Z,98151.56
2023-06-14T12:17:16.291Z,98148.65
2023-06-14T12:19:52.817Z,98142.10
2023-06-14T12:22:25.041Z,98140.20
2023-06-14T12:24:57.771Z,98134.70
2023-06-14T12:27:34.751Z,98139.73
2023-06-14T12:30:07.062Z,98146.53
2023-06-14T12:32:38.697Z,98154.66
2023-06-14T12:35:13.400Z,98156.28
2023-06-14T12:37:46.675Z,98157.87
2023-06-14T12:40:20.212Z,98153.01
2023-06-14T12:42:51.624Z,98150.42
2023-06-14T12:45:23.234Z,98142.36
2023-06-14T12:47:55.710Z,98134.52
2023-06-14T12:50:30.751Z,98135.48
2023-06-14T12:53:02.770Z,98138.52
2023-06-14T12:55:34.618Z,98141.70
2023-06-14T12:58:07.037Z,98145.20
2023-06-14T13:00:38.084Z,98149.93
2023-06-14T13:03:08.642Z,98152.31
2023-06-14T13:05:38.834Z,98158.08
2023-06-14T13:08:12.759Z,98156.52
2023-06-14T13:10:42.641Z,98151.75
2023-06-14T13:13:14.392Z,98147.36
2023-06-14T13:15:44.798Z,98148.19
2023-06-14T13:18:15.271Z,98152.42
2023-06-14T13:20:45.422Z,98156.63
2023-06-14T13:23:20.247Z,98158.70
2023-06-14T13:25:52.031Z,98158.45
2023-06-14T13:28:22.844Z,98155.52
2023-06-14T13:30:54.133Z,98159.26
2023-06-14T13:33:25.772Z,98158.27
2023-06-14T13:35:56.157Z,98159.35
2023-06-14T13:38:26.587Z,98162.45
2023-06-14T13:40:57.807Z,98158.09
2023-06-14T13:43:28.596Z,98160.63
2023-06-14T13:45:58.868Z,98158.00
2023-06-14T13:48:30.947Z,98157.06
2023-06-14T13:51:05.960Z,98156.34
2023-06-14T13:53:36.707Z,98161.92
2023-06-14T13:56:08.998Z,98163.05
2023-06-14T13:58:40.900Z,98167.71
2023-06-14T14:01:14.497Z,98169.55
2023-06-14T14:03:49.434Z,98177.08
2023-06-14T14:06:22.445Z,98173.80
2023-06-14T14:08:54.636Z,98179.55
2023-06-14T14:11:26.362Z,98181.80
2023-06-14T14:13:57.359Z,98180.28
2023-06-14T14:16:28.915Z,98179.83
2023-06-14T14:18:59.536Z,98176.60
2023-06-14T14:21:30.241Z,98176.02
2023-06-14T14:24:01.151Z,98175.23
2023-06-14T14:26:32.009Z,98183.82
2023-06-14T14:29:01.794Z,98182.60
2023-06-14T14:31:33.094Z,98181.80
2023-06-14T14:34:03.439Z,98176.18
2023-06-14T14:36:35.083Z,98176.15
2023-06-14T14:39:04.994Z,98177.40
2023-06-14T14:41:37.532Z,98174.19
2023-06-14T14:44:09.590Z,98171.97
2023-06-14T14:46:40.817Z,98172.89
2023-06-14T14:49:11.783Z,98173.23
2023-06-14T14:51:42.728Z,98171.34
2023-06-14T14:54:14.411Z,98168.23
2023-06-14T14:56:44.521Z,98165.34
2023-06-14T14:59:14.760Z,98168.01
2023-06-14T15:01:45.828Z,98169.60
2023-06-14T15:04:17.582Z,98172.98
2023-06-14T15:06:49.294Z,98174.80
2023-06-14T15:09:21.500Z,98174.19
2023-06-14T15:11:53.926Z,98176.77
2023-06-14T15:14:24.820Z,98178.48
2023-06-14T15:16:57.022Z,98185.83
2023-06-14T15:19:28.366Z,98182.59
2023-06-14T15:21:59.072Z,98182.56
2023-06-14T15:24:42.158Z,98183.63
2023-06-14T15:27:14.904Z,98181.71
2023-06-14T15:29:48.238Z,98184.42
2023-06-14T15:32:19.269Z,98188.02
2023-06-14T15:34:50.057Z,98189.16
2023-06-14T15:37:20.577Z,98191.27
2023-06-14T15:39:51.182Z,98189.28
2023-06-14T15:42:21.429Z,98182.29
2023-06-14T15:44:51.702Z,98176.31
2023-06-14T15:47:22.147Z,98173.23
2023-06-14T15:49:54.056Z,98174.75
2023-06-14T15:52:26.465Z,98175.55
2023-06-14T15:54:59.125Z,98180.40
2023-06-14T15:57:30.560Z,98179.48
2023-06-14T16:00:00.944Z,98179.27
2023-06-14T16:02:31.808Z,98176.48
2023-06-14T16:05:03.018Z,98173.10
2023-06-14T16:07:35.356Z,98170.61
2023-06-14T16:10:06.914Z,98170.27
2023-06-14T16:12:38.368Z,98173.67
2023-06-14T16:15:10.364Z,98171.77
2023-06-14T16:17:42.674Z,98171.84
2023-06-14T16:20:14.419Z,98169.53
2023-06-14T16:22:45.326Z,98171.65
2023-06-14T16:25:17.978Z,98171.75
2023-06-14T16:27:49.802Z,98172.16
2023-06-14T16:30:21.717Z,98175.12
2023-06-14T16:32:53.062Z,98174.67
2023-06-14T16:35:23.891Z,98180.73
2023-06-14T16:37:55.343Z,98183.73
2023-06-14T16:40:28.523Z,98188.20
2023-06-14T16:42:58.933Z,98190.09
2023-06-14T16:45:29.100Z,98194.88
2023-06-14T16:48:00.258Z,98196.31
2023-06-14T16:50:32.067Z,98197.82
2023-06-14T16:53:03.580Z,98196.64
2023-06-14T16:55:36.877Z,98195.95
2023-06-14T16:58:08.686Z,98193.23
2023-06-14T17:00:40.111Z,98194.02
2023-06-14T17:03:11.135Z,98193.14
2023-06-14T17:05:56.954Z,98194.92
2023-06-14T17:08:27.787Z,98195.52
2023-06-14T17:11:01.849Z,98192.55
2023-06-14T17:13:33.598Z,98194.48
2023-06-14T17:16:04.841Z,98194.99
2023-06-14T17:18:38.736Z,98201.48
2023-06-14T17:21:08.711Z,98198.88
2023-06-14T17:23:40.319Z,98198.55
2023-06-14T17:26:12.552Z,98202.69
2023-06-14T17:28:43.936Z,98202.14
2023-06-14T17:31:15.074Z,98202.77
2023-06-14T17:33:46.088Z,98206.69
2023-06-14T17:36:16.548Z,98206.63
2023-06-14T17:38:48.929Z,98210.05
2023-06-14T17:41:24.209Z,98210.00
2023-06-14T17:43:54.077Z,98211.09
2023-06-14T17:46:25.818Z,98214.52
2023-06-14T17:48:56.493Z,98215.51
2023-06-14T17:51:29.446Z,98218.95
2023-06-14T17:54:03.408Z,98222.75
2023-06-14T17:56:35.886Z,98222.63
2023-06-14T17:59:06.489Z,98220.30
2023-06-14T18:01:36.070Z,98215.25
2023-06-14T18:04:06.377Z,98216.45
2023-06-14T18:06:38.431Z,98221.30
2023-06-14T18:09:08.685Z,98219.80
2023-06-14T18:11:39.012Z,98219.00
2023-06-14T18:14:10.220Z,98219.83
2023-06-14T18:16:42.304Z,98220.20
2023-06-14T18:19:18.345Z,98221.14
2023-06-14T18:21:51.579Z,98221.30
2023-06-14T18:24:21.542Z,98217.95
2023-06-14T18:26:51.608Z,98215.35
2023-06-14T18:29:21.987Z,98215.48
2023-06-14T18:31:51.825Z,98219.88
2023-06-14T18:34:25.531Z,98216.45
2023-06-14T18:36:58.058Z,98217.77
2023-06-14T18:39:28.328Z,98216.16
2023-06-14T18:41:59.114Z,98218.70
2023-06-14T18:44:29.604Z,98217.35
2023-06-14T18:47:00.737Z,98218.52
2023-06-14T18:49:31.158Z,98222.27
2023-06-14T18:52:01.516Z,98221.41
2023-06-14T18:54:33.546Z,98223.13
2023-06-14T18:57:04.114Z,98223.61
2023-06-14T18:59:34.350Z,98224.33
2023-06-14T19:02:04.498Z,98229.61
2023-06-14T19:04:33.918Z,98230.48
2023-06-14T19:07:03.645Z,98231.42
2023-06-14T19:09:33.748Z,98233.58
2023-06-14T19:12:03.506Z,98235.40
2023-06-14T19:14:33.008Z,98234.27
2023-06-14T19:17:03.104Z,98235.25
2023-06-14T19:19:32.626Z,98236.46
2023-06-14T19:22:03.474Z,98236.24
2023-06-14T19:24:33.321Z,98234.52
2023-06-14T19:27:03.268Z,98234.48
2023-06-14T19:29:34.474Z,98231.56
2023-06-14T19:32:04.961Z,98237.36
2023-06-14T19:34:34.537Z,98238.02
2023-06-14T19:37:04.835Z,98240.77
2023-06-14T19:39:35.682Z,98237.34
2023-06-14T19:42:06.882Z,98234.77
2023-06-14T19:44:38.755Z,98236.02
2023-06-14T19:47:08.993Z,98233.65
2023-06-14T19:49:38.376Z,98236.54
2023-06-14T19:52:08.651Z,98228.52
2023-06-14T19:54:38.830Z,98229.92
2023-06-14T19:57:09.401Z,98230.16
2023-06-14T19:59:39.244Z,98228.24
2023-06-14T20:02:10.504Z,98224.84
2023-06-14T20:04:40.976Z,98226.59
2023-06-14T20:07:10.609Z,98228.35
2023-06-14T20:09:40.359Z,98234.08
2023-06-14T20:12:10.249Z,98240.06
2023-06-14T20:14:40.996Z,98237.70
2023-06-14T20:17:12.468Z,98239.28
2023-06-14T20:19:42.029Z,98236.22
2023-06-14T20:22:11.275Z,98231.91
2023-06-14T20:24:42.881Z,98233.25
2023-06-14T20:27:13.476Z,98228.65
2023-06-14T20:29:42.818Z,98229.23
2023-06-14T20:32:12.530Z,98226.81
2023-06-14T20:34:42.474Z,98223.24
2023-06-14T20:37:12.298Z,98222.55
2023-06-14T20:39:42.247Z,98223.73
2023-06-14T20:42:29.327Z,98223.46
2023-06-14T20:45:00.891Z,98225.70
2023-06-14T20:47:30.714Z,98225.30
2023-06-14T20:50:00.485Z,98223.29
2023-06-14T20:52:30.330Z,98225.58
2023-06-14T20:54:59.547Z,98224.70
2023-06-14T20:57:29.493Z,98229.41
2023-06-14T20:59:59.904Z,98227.81
2023-06-14T21:02:29.598Z,98232.19
2023-06-14T21:05:01.385Z,98229.41
2023-06-14T21:07:32.233Z,98227.33
2023-06-14T21:10:04.246Z,98223.86
2023-06-14T21:12:35.539Z,98222.86
2023-06-14T21:15:05.810Z,98222.11
2023-06-14T21:17:39.780Z,98224.13
2023-06-14T21:20:12.471Z,98229.17
2023-06-14T21:22:42.587Z,98227.64
2023-06-14T21:25:12.908Z,98229.82
2023-06-14T21:27:43.621Z,98232.05
2023-06-14T21:30:18.153Z,98244.73
2023-06-14T21:32:49.630Z,98242.86
2023-06-14T21:35:21.276Z,98246.89
2023-06-14T21:37:51.863Z,98251.48
2023-06-14T21:40:22.653Z,98247.39
2023-06-14T21:42:52.884Z,98248.55
2023-06-14T21:45:22.461Z,98247.22
2023-06-14T21:47:52.326Z,98246.86
2023-06-14T21:50:21.689Z,98245.86
2023-06-14T21:52:51.485Z,98243.90
2023-06-14T21:55:25.251Z,98239.11
2023-06-14T21:57:56.186Z,98238.82
2023-06-14T22:00:26.628Z,98235.38
2023-06-14T22:02:56.196Z,98240.76
2023-06-14T22:05:26.000Z,98242.55
2023-06-14T22:07:55.256Z,98250.65
2023-06-14T22:10:24.993Z,98251.39
2023-06-14T22:12:55.130Z,98252.86
2023-06-14T22:15:25.968Z,98259.34
2023-06-14T22:17:57.540Z,98261.34
2023-06-14T22:20:30.355Z,98260.54
2023-06-14T22:23:01.499Z,98255.98
2023-06-14T22:25:32.118Z,98254.81
2023-06-14T22:28:01.233Z,98254.41
2023-06-14T22:30:30.755Z,98254.34
2023-06-14T22:33:00.651Z,98253.38
2023-06-14T22:35:30.683Z,98256.73
2023-06-14T22:38:02.283Z,98258.08
2023-06-14T22:40:32.188Z,98257.23
2023-06-14T22:43:03.322Z,98260.25
2023-06-14T22:45:34.373Z,98262.43
2023-06-14T22:48:04.459Z,98261.08
2023-06-14T22:50:35.073Z,98258.41
2023-06-14T22:53:06.298Z,98256.48
2023-06-14T22:55:36.668Z,98252.54
2023-06-14T22:58:05.776Z,98256.89
2023-06-14T23:00:35.342Z,98252.43
2023-06-14T23:03:05.803Z,98245.91
2023-06-14T23:05:37.197Z,98243.55
2023-06-14T23:08:06.567Z,98245.67
2023-06-14T23:10:38.811Z,98248.27
2023-06-14T23:13:08.577Z,98247.28
2023-06-14T23:15:39.050Z,98245.80
2023-06-14T23:18:09.316Z,98247.48
2023-06-14T23:20:38.915Z,98254.28
2023-06-14T23:23:08.462Z,98249.95
2023-06-14T23:25:38.585Z,98250.28
2023-06-14T23:28:12.313Z,98246.60
2023-06-14T23:30:42.884Z,98244.94
2023-06-14T23:33:12.911Z,98245.32
2023-06-14T23:35:43.501Z,98243.05
2023-06-14T23:38:14.907Z,98240.05
2023-06-14T23:40:47.341Z,98244.05
2023-06-14T23:43:21.055Z,98244.70
2023-06-14T23:45:54.668Z,98242.91
2023-06-14T23:48:28.416Z,98242.25
2023-06-14T23:50:58.506Z,98240.85
2023-06-14T23:53:29.165Z,98235.82
2023-06-14T23:55:58.904Z,98237.98
2023-06-14T23:58:30.964Z,98239.16
